Time;durP1;ratioP1;P1;durP2;ratioP2;P2;SDS_P1;SDS_P2;PMS_P1;PMS_P2;Temp;Humidity;BMP_temperature;BMP_pressure;BME280_temperature;BME280_humidity;BME280_pressure;Samples;Min_cycle;Max_cycle;Signal;HPM_P1;HPM_P2
2021/01/07 00:02:06;;;;;;;37.00;26.23;;;4.80;93.80;;;;;;4995833;28;20217;-85
2021/01/07 00:04:32;;;;;;;37.63;25.70;;;4.80;93.80;;;;;;4980748;28;20205;-85
2021/01/07 00:06:59;;;;;;;37.17;25.23;;;4.80;93.80;;;;;;4979613;28;20209;-85
2021/01/07 00:09:26;;;;;;;36.07;24.70;;;4.80;93.80;;;;;;4991250;28;20901;-84
2021/01/07 00:11:52;;;;;;;37.40;26.07;;;4.70;93.80;;;;;;4979371;28;20232;-85
2021/01/07 00:14:19;;;;;;;40.90;28.33;;;4.70;93.80;;;;;;4979732;28;20212;-85
2021/01/07 00:16:46;;;;;;;41.67;27.43;;;4.70;93.80;;;;;;4976195;28;20249;-85
2021/01/07 00:19:13;;;;;;;42.27;28.87;;;4.60;93.80;;;;;;4991612;28;20291;-85
2021/01/07 00:21:40;;;;;;;43.23;27.93;;;4.60;93.80;;;;;;4978926;28;20221;-85
2021/01/07 00:24:08;;;;;;;36.57;27.30;;;4.60;93.80;;;;;;4979947;28;20209;-85
2021/01/07 00:26:34;;;;;;;42.90;28.37;;;4.50;93.70;;;;;;4979583;28;20213;-85
2021/01/07 00:29:02;;;;;;;43.40;29.13;;;4.50;93.80;;;;;;4971802;28;20223;-85
2021/01/07 00:31:28;;;;;;;39.53;26.33;;;4.50;93.80;;;;;;4974213;28;20217;-85
2021/01/07 00:33:56;;;;;;;39.13;27.27;;;4.50;93.80;;;;;;4980937;28;20244;-85
2021/01/07 00:36:23;;;;;;;38.37;27.43;;;4.50;93.80;;;;;;4979961;28;20221;-85
2021/01/07 00:38:50;;;;;;;36.73;25.53;;;4.40;93.70;;;;;;4978500;28;20225;-85
2021/01/07 00:41:20;;;;;;;38.97;26.70;;;4.40;93.70;;;;;;4966103;28;20248;-85
2021/01/07 00:43:49;;;;;;;38.40;25.60;;;4.40;93.70;;;;;;4981177;28;20225;-85
2021/01/07 00:46:18;;;;;;;35.63;26.07;;;4.40;93.70;;;;;;4963757;28;20611;-85
2021/01/07 00:48:47;;;;;;;36.87;27.60;;;4.50;93.70;;;;;;4954929;29;20209;-85
2021/01/07 00:51:15;;;;;;;36.33;27.20;;;4.50;93.70;;;;;;4977147;28;20233;-85
2021/01/07 00:53:42;;;;;;;35.93;25.90;;;4.50;93.70;;;;;;4969536;28;20222;-85
2021/01/07 00:56:10;;;;;;;37.23;24.67;;;4.50;93.60;;;;;;4970422;28;20229;-84
2021/01/07 00:58:37;;;;;;;31.70;23.93;;;4.50;93.60;;;;;;4994882;28;20232;-85
2021/01/07 01:01:04;;;;;;;34.60;25.37;;;4.50;93.60;;;;;;4975249;28;20210;-84
2021/01/07 01:03:30;;;;;;;36.37;25.73;;;4.50;93.60;;;;;;4975027;28;20213;-85
2021/01/07 01:05:57;;;;;;;42.37;25.73;;;4.40;93.60;;;;;;4983168;28;20213;-85
2021/01/07 01:08:23;;;;;;;34.50;24.93;;;4.40;93.60;;;;;;4970063;28;20578;-85
2021/01/07 01:10:50;;;;;;;32.83;24.37;;;4.30;93.60;;;;;;4983207;28;20216;-85
2021/01/07 01:13:17;;;;;;;33.80;23.80;;;4.30;93.60;;;;;;4999490;28;20272;-84
2021/01/07 01:15:43;;;;;;;37.30;26.23;;;4.20;93.70;;;;;;4998361;28;20236;-85
2021/01/07 01:18:11;;;;;;;40.30;26.90;;;4.20;93.70;;;;;;4998356;28;20651;-84
2021/01/07 01:20:38;;;;;;;32.27;23.83;;;4.10;93.60;;;;;;4980088;28;20215;-85
2021/01/07 01:23:07;;;;;;;36.10;24.47;;;4.10;93.60;;;;;;4978903;28;20198;-85
2021/01/07 01:25:34;;;;;;;35.40;24.87;;;4.10;93.60;;;;;;4974873;28;20633;-85
2021/01/07 01:28:00;;;;;;;32.00;23.90;;;4.00;93.60;;;;;;4970379;28;20240;-86
2021/01/07 01:30:27;;;;;;;37.83;25.97;;;4.10;93.70;;;;;;4974690;28;20641;-85
2021/01/07 01:32:55;;;;;;;34.53;25.03;;;4.10;93.70;;;;;;4995255;28;20209;-85
2021/01/07 01:35:22;;;;;;;39.20;26.13;;;4.10;93.80;;;;;;4985179;28;20233;-85
2021/01/07 01:37:49;;;;;;;36.23;24.37;;;4.20;93.70;;;;;;4984804;28;20224;-85
2021/01/07 01:40:16;;;;;;;37.87;25.77;;;4.20;93.70;;;;;;4984384;28;20217;-84
2021/01/07 01:42:47;;;;;;;35.03;24.80;;;4.20;93.70;;;;;;4978609;28;20241;-85
2021/01/07 01:45:15;;;;;;;34.30;24.90;;;4.10;93.60;;;;;;5001288;28;20637;-85
2021/01/07 01:47:42;;;;;;;37.93;25.30;;;4.10;93.60;;;;;;4966295;28;20236;-84
2021/01/07 01:50:09;;;;;;;37.53;25.63;;;4.00;93.60;;;;;;4982883;28;20547;-84
2021/01/07 01:52:37;;;;;;;31.63;23.03;;;4.00;93.60;;;;;;4980733;28;20226;-85
2021/01/07 01:55:05;;;;;;;34.87;24.07;;;3.90;93.90;;;;;;4975301;28;20229;-85
2021/01/07 01:57:33;;;;;;;38.63;25.97;;;3.90;93.70;;;;;;4981469;28;20205;-84
2021/01/07 02:00:00;;;;;;;36.67;24.43;;;3.80;93.70;;;;;;4996193;28;20633;-85
2021/01/07 02:02:27;;;;;;;38.53;26.07;;;3.80;93.80;;;;;;4981549;28;20248;-85
2021/01/07 02:04:56;;;;;;;39.13;25.07;;;3.70;93.80;;;;;;4986463;28;20223;-85
2021/01/07 02:07:25;;;;;;;32.17;23.10;;;3.70;93.90;;;;;;4980597;28;20210;-85
2021/01/07 02:09:52;;;;;;;42.20;25.93;;;3.70;93.90;;;;;;4988573;28;20252;-85
2021/01/07 02:12:21;;;;;;;36.17;25.10;;;3.70;94.00;;;;;;4972641;28;20209;-85
2021/01/07 02:14:48;;;;;;;38.97;26.60;;;3.80;94.00;;;;;;4976786;28;20209;-84
2021/01/07 02:17:16;;;;;;;37.73;25.27;;;3.70;93.90;;;;;;4972373;28;20209;-85
2021/01/07 02:19:43;;;;;;;36.30;25.97;;;3.80;94.00;;;;;;4983193;28;20292;-85
2021/01/07 02:22:12;;;;;;;38.47;25.63;;;3.70;94.00;;;;;;4982654;28;20209;-85
2021/01/07 02:24:39;;;;;;;38.50;25.80;;;3.80;94.00;;;;;;4983616;28;20232;-85
2021/01/07 02:27:08;;;;;;;39.60;27.60;;;3.80;94.00;;;;;;4999234;28;20636;-85
2021/01/07 02:29:37;;;;;;;42.83;27.97;;;3.80;94.00;;;;;;4999384;28;20229;-85
2021/01/07 02:32:06;;;;;;;41.00;27.67;;;3.90;94.10;;;;;;4985303;28;20231;-85
2021/01/07 02:34:33;;;;;;;41.10;28.03;;;3.80;94.00;;;;;;5000638;28;20216;-85
2021/01/07 02:36:59;;;;;;;39.27;27.20;;;3.90;94.10;;;;;;4986916;28;20323;-85
2021/01/07 02:39:26;;;;;;;40.37;27.93;;;3.90;94.20;;;;;;4980963;28;20217;-85
2021/01/07 02:41:54;;;;;;;39.00;26.87;;;3.90;94.10;;;;;;4984370;28;20237;-85
2021/01/07 02:44:22;;;;;;;35.90;25.40;;;3.90;94.00;;;;;;4977911;28;20268;-85
2021/01/07 02:46:50;;;;;;;40.93;27.50;;;3.90;94.10;;;;;;4980416;28;20320;-85
2021/01/07 02:49:17;;;;;;;41.63;26.23;;;3.90;94.10;;;;;;4970659;28;20548;-85
2021/01/07 02:51:44;;;;;;;34.97;25.20;;;3.90;94.10;;;;;;4979955;28;20227;-85
2021/01/07 02:54:12;;;;;;;37.97;26.80;;;4.00;94.10;;;;;;4995656;28;20283;-85
2021/01/07 02:56:39;;;;;;;39.27;26.30;;;4.00;94.10;;;;;;4969657;28;20231;-85
2021/01/07 02:59:06;;;;;;;38.10;27.67;;;4.00;94.10;;;;;;4980093;28;20281;-84
2021/01/07 03:01:33;;;;;;;36.50;27.10;;;4.10;94.10;;;;;;4994857;28;20209;-85
2021/01/07 03:04:00;;;;;;;38.27;26.70;;;4.10;94.10;;;;;;4985095;28;20215;-85
2021/01/07 03:06:28;;;;;;;39.43;27.70;;;4.10;94.10;;;;;;4980071;28;20223;-85
2021/01/07 03:08:54;;;;;;;39.97;27.70;;;4.10;94.10;;;;;;4984092;28;20217;-85
2021/01/07 03:11:21;;;;;;;36.33;25.40;;;4.20;94.10;;;;;;4982141;28;20223;-84
2021/01/07 03:13:47;;;;;;;33.37;24.53;;;4.20;94.10;;;;;;4979141;28;20224;-84
2021/01/07 03:16:14;;;;;;;34.77;25.23;;;4.20;94.00;;;;;;4981934;28;20579;-85
2021/01/07 03:18:43;;;;;;;36.67;25.03;;;4.20;94.00;;;;;;4965697;28;20228;-85
2021/01/07 03:21:11;;;;;;;39.03;26.33;;;4.20;94.00;;;;;;4979686;28;20290;-85
2021/01/07 03:23:38;;;;;;;37.60;25.83;;;4.20;94.00;;;;;;4974933;28;20219;-85
2021/01/07 03:26:04;;;;;;;39.17;27.33;;;4.20;94.00;;;;;;4980798;28;20213;-85
2021/01/07 03:28:31;;;;;;;42.43;27.03;;;4.20;94.10;;;;;;4974371;28;20284;-84
2021/01/07 03:30:58;;;;;;;41.17;26.77;;;4.30;94.10;;;;;;4966833;28;20755;-85
2021/01/07 03:33:24;;;;;;;42.10;27.77;;;4.30;94.10;;;;;;4979779;28;20235;-85
2021/01/07 03:35:51;;;;;;;37.57;26.67;;;4.40;94.10;;;;;;4978954;28;20559;-85
2021/01/07 03:38:17;;;;;;;39.27;28.60;;;4.40;94.10;;;;;;4972509;28;20676;-85
2021/01/07 03:40:44;;;;;;;38.10;26.13;;;4.40;94.00;;;;;;4976902;28;20213;-85
2021/01/07 03:43:11;;;;;;;33.03;24.87;;;4.40;94.00;;;;;;4979245;28;20250;-84
2021/01/07 03:45:37;;;;;;;41.60;27.60;;;4.50;94.00;;;;;;4981528;28;20217;-85
2021/01/07 03:48:05;;;;;;;39.23;27.83;;;4.50;94.00;;;;;;4980767;28;20205;-84
2021/01/07 03:50:32;;;;;;;38.17;26.60;;;4.50;93.90;;;;;;4988414;28;20284;-85
2021/01/07 03:52:58;;;;;;;38.07;27.37;;;4.50;93.90;;;;;;4967494;28;20657;-85
2021/01/07 03:55:25;;;;;;;39.07;26.90;;;4.60;94.00;;;;;;4980424;28;20237;-85
2021/01/07 03:57:51;;;;;;;37.07;27.00;;;4.60;93.80;;;;;;4983425;28;20226;-85
2021/01/07 04:00:18;;;;;;;40.77;27.07;;;4.60;93.80;;;;;;4980463;28;20209;-84
2021/01/07 04:02:45;;;;;;;39.03;27.70;;;4.60;93.80;;;;;;4980902;28;20546;-85
2021/01/07 04:05:12;;;;;;;35.33;25.60;;;4.60;93.90;;;;;;4963834;28;20214;-85
2021/01/07 04:07:39;;;;;;;38.73;26.20;;;4.60;93.80;;;;;;4987143;28;20217;-85
2021/01/07 04:10:07;;;;;;;38.27;26.57;;;4.60;93.80;;;;;;4980373;28;20228;-85
2021/01/07 04:12:35;;;;;;;38.37;26.97;;;4.60;93.90;;;;;;4980395;28;20695;-85
2021/01/07 04:15:03;;;;;;;39.57;27.30;;;4.70;93.90;;;;;;4977873;28;20221;-85
2021/01/07 04:17:31;;;;;;;38.53;26.37;;;4.70;93.80;;;;;;4991380;28;20209;-85
2021/01/07 04:19:57;;;;;;;37.13;25.87;;;4.70;93.80;;;;;;4979510;28;20209;-85
2021/01/07 04:22:26;;;;;;;36.47;25.43;;;4.70;93.80;;;;;;4972070;28;20219;-84
2021/01/07 04:24:52;;;;;;;38.07;26.90;;;4.70;93.80;;;;;;4994869;28;20209;-85
2021/01/07 04:27:19;;;;;;;33.07;25.67;;;4.70;93.80;;;;;;4968204;28;20637;-85
2021/01/07 04:29:45;;;;;;;36.17;26.47;;;4.70;93.80;;;;;;4978213;28;20228;-85
2021/01/07 04:32:13;;;;;;;39.23;27.43;;;4.80;93.80;;;;;;4986026;28;20551;-84
2021/01/07 04:34:39;;;;;;;37.27;25.60;;;4.80;93.80;;;;;;4978195;28;20213;-84
2021/01/07 04:37:06;;;;;;;39.77;25.80;;;4.80;93.80;;;;;;4981501;28;20244;-84
2021/01/07 04:39:33;;;;;;;35.87;25.60;;;4.80;93.80;;;;;;4981164;28;20213;-85
2021/01/07 04:42:00;;;;;;;37.63;26.53;;;4.80;93.80;;;;;;4986056;28;20648;-85
2021/01/07 04:44:28;;;;;;;37.07;26.57;;;4.90;93.80;;;;;;4979854;28;20206;-85
2021/01/07 04:46:55;;;;;;;34.97;24.57;;;4.80;93.80;;;;;;4995792;28;20270;-85
2021/01/07 04:49:22;;;;;;;38.13;25.77;;;4.90;93.80;;;;;;4980169;28;20311;-85
2021/01/07 04:51:49;;;;;;;37.57;26.07;;;4.90;93.70;;;;;;4984909;28;20225;-85
2021/01/07 04:54:17;;;;;;;36.87;25.23;;;4.90;93.70;;;;;;4983863;28;20604;-85
2021/01/07 04:56:44;;;;;;;36.27;25.77;;;4.90;93.70;;;;;;5000330;28;20237;-85
2021/01/07 04:59:11;;;;;;;34.70;24.23;;;4.90;93.80;;;;;;4983983;28;20707;-85
2021/01/07 05:01:38;;;;;;;38.27;25.27;;;4.90;93.70;;;;;;4971495;28;20533;-84
2021/01/07 05:04:05;;;;;;;31.57;23.70;;;4.90;93.70;;;;;;4985227;28;20217;-85
2021/01/07 05:06:34;;;;;;;36.00;23.33;;;4.90;93.70;;;;;;4983310;28;20218;-84
2021/01/07 05:09:02;;;;;;;35.77;25.03;;;4.90;93.70;;;;;;4985901;28;20228;-85
2021/01/07 05:11:30;;;;;;;33.03;23.30;;;4.90;93.60;;;;;;4987004;28;20216;-85
2021/01/07 05:14:08;;;;;;;32.60;23.17;;;4.90;93.60;;;;;;4987987;28;20235;-85
2021/01/07 05:16:35;;;;;;;34.80;23.20;;;4.90;93.60;;;;;;4986869;28;20275;-85
2021/01/07 05:19:06;;;;;;;33.47;23.33;;;4.90;93.60;;;;;;4979341;28;20520;-85
2021/01/07 05:21:34;;;;;;;31.33;23.97;;;4.90;93.50;;;;;;4975140;28;20221;-84
2021/01/07 05:24:02;;;;;;;33.00;23.07;;;4.90;93.50;;;;;;4999494;28;20208;-85
2021/01/07 05:26:29;;;;;;;32.33;23.20;;;4.90;93.60;;;;;;4989354;28;20280;-85
2021/01/07 05:28:58;;;;;;;32.40;23.70;;;4.80;93.50;;;;;;4980220;28;20246;-85
2021/01/07 05:31:26;;;;;;;31.60;23.17;;;4.90;93.60;;;;;;4965253;28;20206;-85
2021/01/07 05:33:55;;;;;;;30.30;22.57;;;4.90;93.60;;;;;;4977410;28;20210;-85
2021/01/07 05:36:26;;;;;;;33.33;23.67;;;5.00;93.60;;;;;;4970944;28;20233;-84
2021/01/07 05:38:56;;;;;;;30.97;21.93;;;4.90;93.50;;;;;;4980220;28;20221;-85
2021/01/07 05:41:25;;;;;;;31.53;22.93;;;5.00;93.60;;;;;;5001742;28;20263;-85
2021/01/07 05:44:02;;;;;;;29.27;21.67;;;5.00;93.60;;;;;;4981126;28;20308;-85
2021/01/07 05:46:30;;;;;;;31.67;21.97;;;5.00;93.50;;;;;;4979005;28;20221;-84
2021/01/07 05:48:57;;;;;;;32.93;23.10;;;5.00;93.50;;;;;;4981524;28;20213;-85
2021/01/07 05:51:25;;;;;;;30.27;20.63;;;5.00;93.50;;;;;;4981718;28;20212;-85
2021/01/07 05:53:59;;;;;;;33.03;21.83;;;5.00;93.50;;;;;;4970590;28;20286;-85
2021/01/07 05:56:27;;;;;;;30.77;21.43;;;5.00;93.40;;;;;;4979015;28;20233;-85
2021/01/07 05:58:55;;;;;;;31.67;22.67;;;4.90;93.30;;;;;;4966574;28;20225;-84
2021/01/07 06:01:23;;;;;;;32.33;21.90;;;4.80;93.30;;;;;;4981688;28;20296;-84
2021/01/07 06:03:54;;;;;;;30.70;22.17;;;4.80;93.40;;;;;;4984435;28;20267;-85
2021/01/07 06:06:24;;;;;;;27.47;20.80;;;4.70;93.40;;;;;;4972298;28;20217;-85
2021/01/07 06:08:53;;;;;;;31.63;22.93;;;4.60;93.40;;;;;;4984800;28;20205;-84
2021/01/07 06:11:23;;;;;;;30.30;20.93;;;4.50;93.50;;;;;;4977923;28;20224;-85
2021/01/07 06:13:52;;;;;;;31.63;21.27;;;4.40;93.60;;;;;;4980856;28;20228;-85
2021/01/07 06:16:25;;;;;;;38.50;22.87;;;4.30;93.60;;;;;;4980218;28;20217;-85
2021/01/07 06:18:54;;;;;;;31.80;21.70;;;4.30;93.70;;;;;;4979967;28;20204;-85
2021/01/07 06:21:24;;;;;;;32.30;22.53;;;4.20;93.70;;;;;;4964766;28;20217;-85
2021/01/07 06:23:58;;;;;;;33.60;21.50;;;4.20;93.70;;;;;;4980466;28;20213;-85
2021/01/07 06:26:28;;;;;;;32.93;22.10;;;4.20;93.70;;;;;;4983474;28;20647;-85
2021/01/07 06:28:57;;;;;;;32.10;21.03;;;4.20;93.70;;;;;;4986194;28;20245;-85
2021/01/07 06:31:34;;;;;;;33.40;23.20;;;4.20;93.70;;;;;;4985789;28;20217;-85
2021/01/07 06:34:02;;;;;;;36.63;23.67;;;4.20;93.70;;;;;;4984595;28;20273;-85
2021/01/07 06:36:45;;;;;;;37.07;20.93;;;4.20;93.70;;;;;;4975672;28;20264;-85
2021/01/07 06:39:11;;;;;;;33.23;22.13;;;4.20;93.70;;;;;;4968546;28;20197;-85
2021/01/07 06:41:38;;;;;;;31.27;21.73;;;4.20;93.70;;;;;;4990189;28;20233;-85
2021/01/07 06:44:06;;;;;;;35.10;22.53;;;4.20;93.70;;;;;;4977806;28;20219;-85
2021/01/07 06:46:48;;;;;;;31.23;20.97;;;4.20;93.80;;;;;;4973686;28;20277;-85
2021/01/07 06:49:21;;;;;;;31.60;22.03;;;4.20;93.80;;;;;;4963545;28;20296;-85
2021/01/07 06:52:07;;;;;;;36.83;23.47;;;4.20;93.70;;;;;;4962789;29;20242;-85
2021/01/07 06:54:37;;;;;;;32.47;21.83;;;4.20;93.70;;;;;;4996447;28;20243;-85
2021/01/07 06:57:22;;;;;;;42.47;21.87;;;4.20;93.70;;;;;;4981912;28;20242;-85
2021/01/07 07:00:16;;;;;;;27.10;18.47;;;4.20;93.70;;;;;;4967157;28;20209;-85
2021/01/07 07:03:04;;;;;;;31.57;20.50;;;4.20;93.70;;;;;;4964577;28;20217;-85
2021/01/07 07:05:35;;;;;;;32.17;21.47;;;4.20;93.70;;;;;;4968681;28;20221;-85
2021/01/07 07:08:08;;;;;;;28.97;20.17;;;4.20;93.70;;;;;;4966456;28;20217;-85
2021/01/07 07:10:36;;;;;;;31.67;20.30;;;4.20;93.70;;;;;;4971074;28;20288;-85
2021/01/07 07:13:28;;;;;;;29.47;20.33;;;4.20;93.70;;;;;;4991135;28;20213;-85
2021/01/07 07:16:01;;;;;;;34.57;21.87;;;4.20;93.70;;;;;;4969223;28;20238;-85
2021/01/07 07:18:33;;;;;;;32.73;20.67;;;4.20;93.70;;;;;;4980466;28;20213;-85
2021/01/07 07:21:32;;;;;;;33.90;22.13;;;4.20;93.70;;;;;;4977373;28;20217;-85
2021/01/07 07:24:10;;;;;;;32.43;22.00;;;4.20;93.70;;;;;;4932147;28;20295;-85
2021/01/07 07:26:39;;;;;;;32.33;22.40;;;4.20;93.70;;;;;;4973265;28;20217;-85
2021/01/07 07:29:13;;;;;;;32.03;21.50;;;4.30;93.70;;;;;;4981398;28;20220;-84
2021/01/07 07:31:46;;;;;;;30.57;21.13;;;4.40;93.70;;;;;;4981130;28;20276;-85
2021/01/07 07:34:14;;;;;;;37.40;22.07;;;4.40;93.60;;;;;;4963104;28;20206;-85
2021/01/07 07:36:42;;;;;;;32.47;21.70;;;4.50;93.60;;;;;;4968426;28;20238;-85
2021/01/07 07:39:10;;;;;;;28.20;19.30;;;4.50;93.50;;;;;;4980527;28;20219;-85
2021/01/07 07:41:43;;;;;;;30.40;19.63;;;4.60;93.40;;;;;;4979865;28;20232;-85
2021/01/07 07:44:15;;;;;;;30.30;19.70;;;4.60;93.30;;;;;;4996519;28;20777;-85
2021/01/07 07:46:43;;;;;;;33.67;20.93;;;4.60;93.30;;;;;;4991804;28;20583;-85
2021/01/07 07:49:11;;;;;;;35.13;22.57;;;4.60;93.30;;;;;;4994705;28;20213;-85
2021/01/07 07:51:39;;;;;;;42.83;25.23;;;4.60;93.30;;;;;;4983325;28;20555;-85
2021/01/07 07:54:11;;;;;;;40.77;24.13;;;4.70;93.30;;;;;;4979562;28;20245;-85
2021/01/07 07:56:39;;;;;;;36.93;22.60;;;4.80;93.30;;;;;;4995224;28;20241;-85
2021/01/07 07:59:10;;;;;;;47.53;22.63;;;4.80;93.30;;;;;;4980186;28;20244;-84
2021/01/07 08:01:38;;;;;;;33.57;21.83;;;4.80;93.30;;;;;;4966649;28;20209;-85
2021/01/07 08:04:15;;;;;;;34.17;22.70;;;4.90;93.20;;;;;;4973671;28;20599;-85
2021/01/07 08:06:46;;;;;;;31.10;21.60;;;5.00;93.20;;;;;;4980115;28;20295;-84
2021/01/07 08:09:15;;;;;;;30.17;20.47;;;5.00;93.20;;;;;;4979069;28;20205;-85
2021/01/07 08:11:53;;;;;;;33.30;20.83;;;5.10;93.10;;;;;;4995830;28;20227;-84
2021/01/07 08:14:25;;;;;;;33.63;21.97;;;5.10;93.10;;;;;;4980196;28;20295;-85
2021/01/07 08:16:56;;;;;;;32.60;22.10;;;5.20;93.10;;;;;;4979720;28;20268;-85
2021/01/07 08:19:31;;;;;;;33.83;21.80;;;5.20;93.00;;;;;;4980311;28;20213;-85
2021/01/07 08:21:59;;;;;;;32.07;20.80;;;5.30;93.10;;;;;;4962539;28;20593;-85
2021/01/07 08:24:26;;;;;;;31.37;21.53;;;5.30;93.30;;;;;;4991617;28;20220;-85
2021/01/07 08:27:08;;;;;;;30.10;20.10;;;5.40;93.00;;;;;;4977098;28;20213;-85
2021/01/07 08:29:39;;;;;;;33.70;21.90;;;5.40;93.00;;;;;;4970240;28;20294;-85
2021/01/07 08:32:10;;;;;;;32.87;21.87;;;5.50;92.90;;;;;;4980421;28;20209;-85
2021/01/07 08:34:38;;;;;;;33.60;20.90;;;5.50;92.80;;;;;;4971004;28;20279;-85
2021/01/07 08:37:13;;;;;;;33.00;20.37;;;5.60;92.80;;;;;;4982214;28;20217;-85
2021/01/07 08:39:41;;;;;;;33.00;21.20;;;5.60;92.80;;;;;;4982374;28;20275;-85
2021/01/07 08:42:10;;;;;;;30.47;22.13;;;5.60;92.80;;;;;;4981268;28;20587;-86
2021/01/07 08:44:37;;;;;;;30.83;20.93;;;5.70;92.80;;;;;;4977165;28;20210;-85
2021/01/07 08:47:28;;;;;;;33.97;23.63;;;5.70;92.80;;;;;;4966438;28;20228;-83
2021/01/07 08:50:06;;;;;;;30.47;21.13;;;5.70;92.70;;;;;;4968539;28;20284;-84
2021/01/07 08:52:53;;;;;;;34.13;22.60;;;5.80;92.70;;;;;;4963985;29;20206;-84
2021/01/07 08:55:21;;;;;;;29.13;21.10;;;5.80;92.60;;;;;;4963298;29;20272;-83
2021/01/07 08:57:47;;;;;;;30.80;21.70;;;5.80;92.50;;;;;;4964556;28;20249;-84
2021/01/07 09:00:19;;;;;;;29.67;19.83;;;5.90;92.50;;;;;;4978521;28;20657;-84
2021/01/07 09:03:01;;;;;;;28.30;20.17;;;5.90;92.50;;;;;;4962495;29;20637;-84
2021/01/07 09:05:29;;;;;;;33.87;21.53;;;5.90;92.40;;;;;;4962377;29;20200;-84
2021/01/07 09:08:11;;;;;;;32.77;21.73;;;5.90;92.40;;;;;;4962130;28;20221;-83
2021/01/07 09:10:39;;;;;;;34.07;22.17;;;5.90;92.30;;;;;;4946631;29;20236;-84
2021/01/07 09:13:20;;;;;;;27.87;20.20;;;5.90;92.30;;;;;;4963265;28;20637;-84
2021/01/07 09:15:48;;;;;;;32.37;21.40;;;6.00;92.30;;;;;;4961795;28;20218;-85
2021/01/07 09:18:28;;;;;;;30.90;22.07;;;5.90;92.10;;;;;;4965042;29;20241;-84
2021/01/07 09:21:13;;;;;;;29.13;21.27;;;5.90;92.10;;;;;;4962955;29;20226;-84
2021/01/07 09:23:47;;;;;;;26.77;20.10;;;6.00;92.10;;;;;;4966106;28;20213;-84
2021/01/07 09:26:28;;;;;;;31.47;20.73;;;5.90;91.80;;;;;;4965478;29;20197;-84
2021/01/07 09:28:56;;;;;;;34.03;20.37;;;5.90;91.70;;;;;;4967599;28;20533;-84
2021/01/07 09:31:23;;;;;;;32.40;22.30;;;5.90;91.60;;;;;;4967394;28;20206;-84
2021/01/07 09:33:52;;;;;;;28.20;20.07;;;5.90;91.60;;;;;;4967582;28;20245;-84
2021/01/07 09:36:24;;;;;;;29.50;20.57;;;5.90;91.60;;;;;;4967318;29;20250;-83
2021/01/07 09:38:51;;;;;;;26.70;20.50;;;5.90;91.60;;;;;;4967034;29;20273;-84
2021/01/07 09:41:19;;;;;;;29.97;21.23;;;6.00;91.50;;;;;;4967804;29;20308;-84
2021/01/07 09:43:45;;;;;;;32.53;21.17;;;6.00;91.40;;;;;;4983161;28;20609;-84
2021/01/07 09:46:12;;;;;;;27.73;20.13;;;6.00;91.30;;;;;;4988574;28;20213;-84
2021/01/07 09:48:42;;;;;;;30.73;21.30;;;6.10;91.40;;;;;;4986969;28;20256;-84
2021/01/07 09:51:16;;;;;;;27.77;22.40;;;6.20;91.30;;;;;;4987398;28;20217;-83
2021/01/07 09:53:43;;;;;;;33.13;23.13;;;6.30;91.20;;;;;;4985083;28;20193;-84
2021/01/07 09:56:19;;;;;;;30.53;21.53;;;6.30;91.20;;;;;;4983935;28;20221;-83
2021/01/07 09:58:46;;;;;;;30.00;21.83;;;6.40;91.10;;;;;;4984685;28;20284;-84
2021/01/07 10:01:17;;;;;;;33.40;22.43;;;6.50;91.00;;;;;;4984385;28;20217;-84
2021/01/07 10:03:47;;;;;;;29.90;21.90;;;6.50;90.90;;;;;;4983148;28;20210;-83
2021/01/07 10:06:13;;;;;;;32.83;21.30;;;6.50;90.80;;;;;;4982729;28;20213;-83
2021/01/07 10:08:42;;;;;;;26.27;21.03;;;6.50;90.50;;;;;;4984096;28;20277;-83
2021/01/07 10:11:12;;;;;;;34.63;23.47;;;6.60;90.30;;;;;;4984943;28;20245;-82
2021/01/07 10:13:40;;;;;;;28.30;20.77;;;6.60;90.30;;;;;;4984199;28;20601;-83
2021/01/07 10:16:16;;;;;;;31.73;23.87;;;6.70;90.30;;;;;;4983995;28;20288;-83
2021/01/07 10:18:44;;;;;;;28.67;23.27;;;6.80;90.30;;;;;;4980372;28;20205;-83
2021/01/07 10:21:19;;;;;;;33.90;22.27;;;7.00;90.10;;;;;;4964906;28;20221;-83
2021/01/07 10:23:54;;;;;;;32.83;24.43;;;7.00;89.40;;;;;;4965442;29;20220;-81
2021/01/07 10:26:22;;;;;;;29.43;22.50;;;7.20;89.30;;;;;;4965109;29;20217;-82
2021/01/07 10:28:53;;;;;;;29.40;21.50;;;7.30;88.80;;;;;;4996878;28;20201;-83
2021/01/07 10:31:20;;;;;;;34.73;22.83;;;7.40;88.60;;;;;;4999680;28;20292;-82
2021/01/07 10:33:51;;;;;;;27.23;20.67;;;7.40;88.40;;;;;;4983875;28;20243;-82
2021/01/07 10:36:18;;;;;;;22.37;18.50;;;7.50;88.50;;;;;;4998702;28;20324;-83
2021/01/07 10:38:47;;;;;;;27.87;19.90;;;7.60;88.20;;;;;;4999987;28;20259;-82
2021/01/07 10:41:15;;;;;;;25.57;20.57;;;7.70;87.80;;;;;;4982354;28;20272;-83
2021/01/07 10:43:44;;;;;;;23.50;19.00;;;7.70;87.20;;;;;;4983089;28;20244;-82
2021/01/07 10:46:13;;;;;;;23.73;19.67;;;7.70;87.20;;;;;;4984290;28;20209;-83
2021/01/07 10:48:44;;;;;;;23.00;18.23;;;7.70;87.20;;;;;;4983625;28;20209;-82
2021/01/07 10:51:12;;;;;;;21.67;17.60;;;7.70;87.30;;;;;;4984231;28;20217;-83
2021/01/07 10:53:46;;;;;;;29.43;19.87;;;7.70;87.20;;;;;;4982837;28;20217;-83
2021/01/07 10:57:03;;;;;;;25.77;20.10;;;7.70;87.10;;;;;;4984029;28;20215;-84
2021/01/07 10:59:46;;;;;;;21.50;17.70;;;7.70;87.00;;;;;;4949846;28;20214;-84
2021/01/07 11:02:48;;;;;;;27.70;18.30;;;7.70;86.30;;;;;;4982810;28;20265;-83
2021/01/07 11:05:22;;;;;;;24.43;17.63;;;7.70;86.20;;;;;;4983064;28;20203;-83
2021/01/07 11:07:55;;;;;;;24.33;18.87;;;7.80;85.80;;;;;;4979545;28;20309;-83
2021/01/07 11:10:23;;;;;;;27.10;18.50;;;7.80;86.00;;;;;;4964186;29;20222;-83
2021/01/07 11:12:57;;;;;;;25.20;18.67;;;7.80;86.20;;;;;;4964253;29;20221;-83
2021/01/07 11:15:29;;;;;;;24.30;18.50;;;7.80;85.60;;;;;;4963654;29;20200;-83
2021/01/07 11:18:30;;;;;;;26.03;20.17;;;7.80;85.90;;;;;;4964533;29;20300;-82
2021/01/07 11:21:04;;;;;;;20.93;15.40;;;7.80;86.30;;;;;;4954309;29;20223;-82
2021/01/07 11:23:34;;;;;;;19.57;14.73;;;7.90;85.50;;;;;;4964823;29;20202;-81
2021/01/07 11:26:02;;;;;;;22.47;17.23;;;7.90;85.00;;;;;;4965102;28;20206;-82
2021/01/07 11:28:33;;;;;;;21.43;17.30;;;8.00;85.20;;;;;;4964345;29;20206;-83
2021/01/07 11:31:07;;;;;;;20.97;16.60;;;8.10;85.50;;;;;;4964597;29;20296;-83
2021/01/07 11:33:34;;;;;;;21.37;16.63;;;8.20;85.20;;;;;;4966332;28;20234;-83
2021/01/07 11:36:05;;;;;;;20.03;16.27;;;8.30;85.30;;;;;;4967869;29;20240;-83
2021/01/07 11:38:38;;;;;;;20.57;16.37;;;8.40;85.00;;;;;;4970981;29;20234;-83
2021/01/07 11:44:20;;;;;;;20.17;15.80;;;8.60;84.60;;;;;;4965124;28;20300;-83
2021/01/07 11:46:49;;;;;;;20.57;16.40;;;8.60;84.30;;;;;;4963677;28;20245;-82
2021/01/07 11:49:21;;;;;;;17.40;14.90;;;8.70;84.00;;;;;;4963544;29;20218;-82
2021/01/07 11:51:54;;;;;;;18.10;14.57;;;8.60;83.10;;;;;;4962607;29;20214;-83
2021/01/07 11:54:27;;;;;;;16.47;12.93;;;8.50;83.20;;;;;;4964260;28;20226;-82
2021/01/07 11:56:57;;;;;;;19.50;14.27;;;8.50;82.60;;;;;;4963023;28;20233;-83
2021/01/07 11:59:25;;;;;;;18.47;15.70;;;8.50;82.20;;;;;;4962033;29;20533;-83
2021/01/07 12:01:53;;;;;;;19.27;14.23;;;8.50;82.60;;;;;;4960801;29;20206;-83
2021/01/07 12:04:20;;;;;;;14.27;12.77;;;8.70;82.00;;;;;;4961647;28;20219;-83
2021/01/07 12:07:01;;;;;;;15.60;13.13;;;8.70;81.50;;;;;;4961158;29;20228;-83
2021/01/07 12:09:39;;;;;;;18.17;14.23;;;8.70;81.10;;;;;;4963541;29;20248;-83
2021/01/07 12:12:20;;;;;;;17.43;14.17;;;8.70;81.80;;;;;;4963403;28;20411;-83
2021/01/07 12:14:56;;;;;;;17.50;13.97;;;8.70;81.70;;;;;;4961485;29;20245;-83
2021/01/07 12:17:22;;;;;;;18.30;15.50;;;8.70;81.40;;;;;;4961826;29;20280;-83
2021/01/07 12:19:52;;;;;;;17.10;14.73;;;8.60;81.20;;;;;;4962281;29;20210;-82
2021/01/07 12:22:20;;;;;;;17.37;15.27;;;8.60;82.00;;;;;;4961700;29;20276;-83
2021/01/07 12:25:01;;;;;;;20.63;15.50;;;8.60;82.10;;;;;;4962121;29;20209;-83
2021/01/07 12:27:28;;;;;;;19.97;15.97;;;8.50;82.20;;;;;;4979858;28;20225;-83
2021/01/07 12:29:55;;;;;;;18.87;15.10;;;8.50;82.60;;;;;;4962470;29;20214;-82
2021/01/07 12:32:25;;;;;;;23.00;16.43;;;8.50;83.10;;;;;;4978919;28;20221;-82
2021/01/07 12:35:09;;;;;;;19.37;15.20;;;8.50;82.90;;;;;;4963025;29;20209;-85
2021/01/07 12:37:42;;;;;;;19.40;17.17;;;8.40;83.30;;;;;;4962673;29;20668;-83
2021/01/07 12:40:16;;;;;;;19.07;16.67;;;8.40;83.10;;;;;;4964428;28;20200;-81
2021/01/07 12:42:45;;;;;;;23.30;17.77;;;8.40;83.40;;;;;;4961213;29;20238;-83
2021/01/07 12:45:16;;;;;;;23.23;16.33;;;8.50;83.70;;;;;;4962695;28;20210;-83
2021/01/07 12:47:43;;;;;;;18.70;15.97;;;8.50;83.80;;;;;;4962313;28;20202;-82
2021/01/07 12:50:12;;;;;;;22.13;18.03;;;8.50;83.00;;;;;;4960931;29;20264;-83
2021/01/07 12:52:40;;;;;;;20.57;17.47;;;8.50;83.00;;;;;;4962814;28;20221;-83
2021/01/07 12:55:13;;;;;;;23.33;18.03;;;8.40;83.60;;;;;;4976970;28;20220;-83